createdAt,value
2018-11-07T00:00:11.506Z,972.9
2018-11-07T00:01:12.721Z,973.1
2018-11-07T00:02:14.247Z,973
2018-11-07T00:03:15.668Z,973.1
2018-11-07T00:04:19.834Z,973.1
2018-11-07T00:05:21.084Z,973.1
2018-11-07T00:06:22.336Z,973
2018-11-07T00:07:23.576Z,973.1
2018-11-07T00:08:26.178Z,973
2018-11-07T00:09:27.504Z,973.1
2018-11-07T00:10:28.710Z,973.1
2018-11-07T00:11:30.100Z,973
2018-11-07T00:12:31.349Z,973
2018-11-07T00:13:32.514Z,973
2018-11-07T00:14:33.699Z,973.1
2018-11-07T00:15:37.622Z,972.9
2018-11-07T00:16:39.092Z,973
2018-11-07T00:17:40.676Z,973.1
2018-11-07T00:18:41.856Z,973.1
2018-11-07T00:19:43.081Z,973.1
2018-11-07T00:20:45.512Z,973.1
2018-11-07T00:21:46.692Z,973
2018-11-07T00:22:48.217Z,973.1
2018-11-07T00:23:49.653Z,973.1
2018-11-07T00:24:50.846Z,973.1
2018-11-07T00:25:52.052Z,973.1
2018-11-07T00:26:53.213Z,973.1
2018-11-07T00:27:54.434Z,972.9
2018-11-07T00:28:55.656Z,973.2
2018-11-07T00:29:56.928Z,973.2
2018-11-07T00:30:58.086Z,973.2
2018-11-07T00:31:59.317Z,972.9
2018-11-07T00:33:00.747Z,973.2
2018-11-07T00:34:04.977Z,973.2
2018-11-07T00:35:06.181Z,973.2
2018-11-07T00:36:07.328Z,973.2
2018-11-07T00:37:08.531Z,973.1
2018-11-07T00:38:09.797Z,973.1
2018-11-07T00:39:10.986Z,973.1
2018-11-07T00:40:12.429Z,973.1
2018-11-07T00:41:45.828Z,973.1
2018-11-07T00:42:47.237Z,973.1
2018-11-07T00:43:49.809Z,973.1
2018-11-07T00:44:50.976Z,973.1
2018-11-07T00:45:52.173Z,973.1
2018-11-07T00:46:55.712Z,973.2
2018-11-07T00:47:56.882Z,973.2
2018-11-07T00:48:58.940Z,973
2018-11-07T00:50:00.133Z,973.1
2018-11-07T00:51:01.331Z,973.2
2018-11-07T00:52:02.702Z,973.1
2018-11-07T00:53:06.968Z,973.2
2018-11-07T00:54:08.288Z,973.1
2018-11-07T00:55:09.551Z,973.3
2018-11-07T00:56:11.235Z,973.3
2018-11-07T00:57:12.537Z,973.3
2018-11-07T00:58:14.224Z,973.3
2018-11-07T00:59:15.333Z,973.3
2018-11-07T01:00:16.497Z,973.1
2018-11-07T01:01:17.692Z,973.3
2018-11-07T01:02:18.926Z,973.3
2018-11-07T01:03:20.285Z,973.3
2018-11-07T01:04:21.867Z,973.3
2018-11-07T01:05:23.017Z,973.3
2018-11-07T01:06:24.224Z,973.4
2018-11-07T01:07:25.462Z,973.3
2018-11-07T01:08:26.680Z,973.3
2018-11-07T01:09:27.928Z,973.3
2018-11-07T01:10:29.211Z,973.2
2018-11-07T01:11:30.425Z,973.2
2018-11-07T01:12:34.539Z,973.2
2018-11-07T01:13:38.633Z,973.1
2018-11-07T01:14:40.084Z,973.1
2018-11-07T01:15:41.234Z,973.1
2018-11-07T01:16:42.490Z,973.1
2018-11-07T01:17:46.852Z,973.1
2018-11-07T01:18:48.349Z,973.1
2018-11-07T01:19:49.838Z,973.1
2018-11-07T01:20:51.022Z,973.1
2018-11-07T01:21:52.182Z,973.2
2018-11-07T01:22:53.355Z,973.1
2018-11-07T01:23:54.543Z,973.1
2018-11-07T01:24:56.084Z,973.1
2018-11-07T01:25:57.281Z,973.1
2018-11-07T01:26:58.500Z,973.1
2018-11-07T01:28:00.797Z,973
2018-11-07T01:29:01.993Z,972.9
2018-11-07T01:30:05.986Z,973.1
2018-11-07T01:31:07.139Z,973
2018-11-07T01:32:08.321Z,973
2018-11-07T01:33:09.530Z,973.1
2018-11-07T01:34:10.719Z,973
2018-11-07T01:35:11.908Z,973.1
2018-11-07T01:36:13.062Z,973.1
2018-11-07T01:37:14.236Z,973.1
2018-11-07T01:38:15.455Z,973.1
2018-11-07T01:39:16.642Z,972.9
2018-11-07T01:40:17.821Z,973.2
2018-11-07T01:41:19.055Z,973.2
2018-11-07T01:42:20.257Z,973.2
2018-11-07T01:43:21.426Z,973
2018-11-07T01:44:22.621Z,973.2
2018-11-07T01:45:23.893Z,973.2
2018-11-07T01:46:25.077Z,973.2
2018-11-07T01:47:26.293Z,973.2
2018-11-07T01:48:27.476Z,973.2
2018-11-07T01:49:33.255Z,973.2
2018-11-07T01:50:34.467Z,973
2018-11-07T01:51:35.627Z,973.2
2018-11-07T01:52:36.826Z,973.2
2018-11-07T01:53:38.033Z,973.2
2018-11-07T01:54:41.977Z,973.2
2018-11-07T01:55:43.186Z,973.1
2018-11-07T01:56:44.390Z,973.2
2018-11-07T01:57:45.584Z,973.2
2018-11-07T01:58:46.829Z,973.1
2018-11-07T01:59:48.010Z,973.2
2018-11-07T02:00:49.250Z,973.2
2018-11-07T02:01:50.420Z,973.2
2018-11-07T02:02:51.620Z,973.2
2018-11-07T02:03:52.884Z,973.2
2018-11-07T02:04:54.082Z,973.2
2018-11-07T02:05:55.338Z,973.2
2018-11-07T02:06:56.543Z,973.2
2018-11-07T02:07:57.841Z,973.1
2018-11-07T02:08:59.022Z,973.1
2018-11-07T02:10:00.204Z,973.1
2018-11-07T02:11:01.406Z,973.1
2018-11-07T02:12:02.600Z,973.2
2018-11-07T02:13:06.749Z,973.2
2018-11-07T02:14:08.301Z,973.1
2018-11-07T02:15:09.485Z,973.1
2018-11-07T02:16:10.697Z,973
2018-11-07T02:17:11.866Z,973
2018-11-07T02:18:13.275Z,973.1
2018-11-07T02:19:14.700Z,973.1
2018-11-07T02:20:15.918Z,972.9
2018-11-07T02:21:19.307Z,973.1
2018-11-07T02:22:23.092Z,973.1
2018-11-07T02:23:24.263Z,973.1
2018-11-07T02:24:26.503Z,973
2018-11-07T02:25:27.730Z,973.1
2018-11-07T02:26:29.227Z,973.1
2018-11-07T02:27:36.544Z,973.2
2018-11-07T02:28:37.704Z,973.1
2018-11-07T02:29:39.944Z,973.1
2018-11-07T02:30:41.129Z,973.1
2018-11-07T02:31:42.380Z,973.2
2018-11-07T02:32:43.581Z,973.1
2018-11-07T02:33:44.847Z,973.1
2018-11-07T02:34:48.498Z,973.2
2018-11-07T02:35:58.015Z,973.2
2018-11-07T02:36:59.269Z,973.1
2018-11-07T02:38:00.449Z,973.1
2018-11-07T02:39:04.430Z,973.1
2018-11-07T02:40:08.276Z,973
2018-11-07T02:41:09.471Z,973
2018-11-07T02:42:10.941Z,973
2018-11-07T02:43:12.290Z,973
2018-11-07T02:44:13.473Z,973.1
2018-11-07T02:45:14.664Z,973
2018-11-07T02:46:19.793Z,973
2018-11-07T02:47:20.992Z,973
2018-11-07T02:48:22.296Z,973
2018-11-07T02:49:23.446Z,972.9
2018-11-07T02:50:28.816Z,973
2018-11-07T02:51:29.987Z,972.8
2018-11-07T02:52:32.863Z,973
2018-11-07T02:53:36.927Z,973
2018-11-07T02:54:38.021Z,973
2018-11-07T02:55:39.255Z,973
2018-11-07T02:56:40.597Z,973.1
2018-11-07T02:57:41.837Z,973.1
2018-11-07T02:58:43.282Z,973.1
2018-11-07T02:59:46.977Z,973.1
2018-11-07T03:00:48.139Z,973.1
2018-11-07T03:01:49.357Z,973.1
2018-11-07T03:02:50.768Z,973.1
2018-11-07T03:03:51.945Z,973
2018-11-07T03:04:53.124Z,973
2018-11-07T03:05:55.314Z,973
2018-11-07T03:06:56.624Z,973.1
2018-11-07T03:07:57.872Z,973
2018-11-07T03:09:06.516Z,973
2018-11-07T03:10:07.718Z,973
2018-11-07T03:11:08.892Z,973
2018-11-07T03:12:10.228Z,973
2018-11-07T03:13:13.856Z,973
2018-11-07T03:14:17.496Z,973
2018-11-07T03:15:18.702Z,973.1
2018-11-07T03:16:19.903Z,973.1
2018-11-07T03:17:21.088Z,973.1
2018-11-07T03:18:22.329Z,973.1
2018-11-07T03:19:24.491Z,973.1
2018-11-07T03:20:25.670Z,973.1
2018-11-07T03:21:33.291Z,973
2018-11-07T03:22:34.475Z,973.2
2018-11-07T03:23:35.728Z,973.1
2018-11-07T03:24:36.898Z,973
2018-11-07T03:25:43.069Z,973.1
2018-11-07T03:26:44.218Z,973
2018-11-07T03:27:45.394Z,972.9
2018-11-07T03:28:46.593Z,973.1
2018-11-07T03:29:48.087Z,973
2018-11-07T03:30:49.325Z,973.1
2018-11-07T03:31:53.003Z,973
2018-11-07T03:32:55.179Z,973.1
2018-11-07T03:33:56.438Z,973
2018-11-07T03:34:57.618Z,973
2018-11-07T03:36:05.168Z,973.1
2018-11-07T03:37:06.404Z,973.1
2018-11-07T03:38:07.612Z,973
2018-11-07T03:39:09.118Z,973.1
2018-11-07T03:40:10.298Z,973
2018-11-07T03:41:11.750Z,973.1
2018-11-07T03:42:12.941Z,973.1
2018-11-07T03:43:14.929Z,973.1
2018-11-07T03:44:16.130Z,973.2
2018-11-07T03:45:18.278Z,973.2
2018-11-07T03:46:19.506Z,973.2
2018-11-07T03:47:20.710Z,973.3
2018-11-07T03:48:21.897Z,973.2
2018-11-07T03:49:23.290Z,973.4
2018-11-07T03:50:24.483Z,973.4
2018-11-07T03:51:25.667Z,973.4
2018-11-07T03:52:26.904Z,973.4
2018-11-07T03:53:28.116Z,973.4
2018-11-07T03:54:29.356Z,973.4
2018-11-07T03:56:47.682Z,973.4
2018-11-07T03:57:49.153Z,973.4
2018-11-07T03:58:53.063Z,973.3
2018-11-07T03:59:54.288Z,973.3
2018-11-07T04:00:55.628Z,973.3
2018-11-07T04:01:56.835Z,973.3
2018-11-07T04:02:58.023Z,973.3
2018-11-07T04:04:01.872Z,973.3
2018-11-07T04:05:03.345Z,973.3
2018-11-07T04:06:04.542Z,973.2
2018-11-07T04:07:05.726Z,973.3
2018-11-07T04:08:07.159Z,973.4
2018-11-07T04:09:08.485Z,973.2
2018-11-07T04:10:14.595Z,973.4
2018-11-07T04:11:15.768Z,973.5
2018-11-07T04:12:17.279Z,973.5
2018-11-07T04:13:18.483Z,973.4
2018-11-07T04:14:20.884Z,973.4
2018-11-07T04:15:23.351Z,973.5
2018-11-07T04:16:24.511Z,973.4
2018-11-07T04:17:27.936Z,973.5
2018-11-07T04:18:29.177Z,973.4
2018-11-07T04:19:30.399Z,973.5
2018-11-07T04:20:31.604Z,973.4
2018-11-07T04:21:34.084Z,973.5
2018-11-07T04:22:35.294Z,973.2
2018-11-07T04:23:36.519Z,973.5
2018-11-07T04:24:37.705Z,973.5
2018-11-07T04:25:38.945Z,973.5
2018-11-07T04:26:46.953Z,973.4
2018-11-07T04:27:48.156Z,973.5
2018-11-07T04:28:49.328Z,973.5
2018-11-07T04:29:51.906Z,973.4
2018-11-07T04:30:53.106Z,973.5
2018-11-07T04:31:54.280Z,973.5
2018-11-07T04:32:55.493Z,973.5
2018-11-07T04:33:56.693Z,973.4
2018-11-07T04:35:00.090Z,973.4
2018-11-07T04:36:02.631Z,973.6
2018-11-07T04:37:06.499Z,973.6
2018-11-07T04:38:07.705Z,973.5
2018-11-07T04:39:08.922Z,973.6
2018-11-07T04:40:10.092Z,973.6
2018-11-07T04:41:11.542Z,973.6
2018-11-07T04:42:12.741Z,973.6
2018-11-07T04:43:16.952Z,973.6
2018-11-07T04:44:18.179Z,973.5
2018-11-07T04:45:19.337Z,973.4
2018-11-07T04:46:20.585Z,973.5
2018-11-07T04:47:21.779Z,973.6
2018-11-07T04:48:22.976Z,973.6
2018-11-07T04:49:24.237Z,973.5
2018-11-07T04:50:25.630Z,973.5
2018-11-07T04:51:26.822Z,973.5
2018-11-07T04:52:33.686Z,973.4
2018-11-07T04:53:37.383Z,973.4
2018-11-07T04:54:40.597Z,973.4
2018-11-07T04:55:44.631Z,973.5
2018-11-07T04:56:45.876Z,973.5
2018-11-07T04:57:54.708Z,973.4
2018-11-07T04:58:58.762Z,973.4
2018-11-07T05:00:00.277Z,973.5
2018-11-07T05:01:01.501Z,973.5
2018-11-07T05:02:02.771Z,973.5
2018-11-07T05:03:03.999Z,973.5
2018-11-07T05:04:05.469Z,973.3
2018-11-07T05:05:06.647Z,973.5
2018-11-07T05:06:10.589Z,973.3
2018-11-07T05:07:11.890Z,973.5
2018-11-07T05:08:13.070Z,973.5
2018-11-07T05:09:16.654Z,973.6
2018-11-07T05:10:19.069Z,973.4
2018-11-07T05:11:20.274Z,973.6
2018-11-07T05:12:21.725Z,973.6
2018-11-07T05:13:23.090Z,973.5
2018-11-07T05:14:24.304Z,973.6
2018-11-07T05:15:25.477Z,973.6
2018-11-07T05:16:26.681Z,973.6
2018-11-07T05:17:29.450Z,973.6
2018-11-07T05:18:30.635Z,973.6
2018-11-07T05:19:31.804Z,973.6
2018-11-07T05:20:32.960Z,973.6
2018-11-07T05:21:34.124Z,973.5
2018-11-07T05:22:38.009Z,973.5
2018-11-07T05:23:39.244Z,973.5
2018-11-07T05:24:40.723Z,973.5
2018-11-07T05:25:42.101Z,973.4
2018-11-07T05:26:43.337Z,973.5
2018-11-07T05:27:47.709Z,973.5
2018-11-07T05:28:49.814Z,973.6
2018-11-07T05:29:51.044Z,973.6
2018-11-07T05:30:52.249Z,973.8
2018-11-07T05:31:53.487Z,973.8
2018-11-07T05:32:56.285Z,973.8
2018-11-07T05:33:57.477Z,973.8
2018-11-07T05:34:58.682Z,973.9
2018-11-07T05:36:01.806Z,973.9
2018-11-07T05:37:02.987Z,974
2018-11-07T05:38:04.210Z,973.9
2018-11-07T05:39:05.606Z,973.9
2018-11-07T05:40:06.827Z,973.9
2018-11-07T05:41:08.045Z,973.9
2018-11-07T05:42:11.625Z,973.9
2018-11-07T05:43:12.916Z,973.9
2018-11-07T05:44:14.117Z,973.7
2018-11-07T05:45:15.317Z,973.8
2018-11-07T05:46:16.525Z,973.8
2018-11-07T05:47:17.738Z,973.7
2018-11-07T05:48:20.828Z,973.8
2018-11-07T05:49:22.020Z,973.8
2018-11-07T05:50:26.314Z,973.8
2018-11-07T05:51:30.829Z,973.8
2018-11-07T05:52:32.026Z,973.7
2018-11-07T05:53:33.277Z,973.8
2018-11-07T05:54:35.734Z,973.8
2018-11-07T05:55:37.113Z,973.6
2018-11-07T05:56:38.329Z,973.6
2018-11-07T05:57:42.574Z,973.7
2018-11-07T05:58:44.083Z,973.7
2018-11-07T05:59:47.514Z,973.6
2018-11-07T06:00:49.046Z,973.7
2018-11-07T06:01:50.244Z,973.6
2018-11-07T06:02:51.437Z,973.6
2018-11-07T06:03:54.647Z,973.6
2018-11-07T06:04:55.986Z,973.5
2018-11-07T06:06:03.792Z,973.6
2018-11-07T06:07:05.021Z,973.6
2018-11-07T06:08:07.321Z,973.5
2018-11-07T06:09:08.804Z,973.6
2018-11-07T06:10:11.294Z,973.6
2018-11-07T06:11:12.552Z,973.7
2018-11-07T06:12:15.092Z,973.7
2018-11-07T06:13:16.304Z,973.8
2018-11-07T06:14:20.194Z,973.7
2018-11-07T06:15:21.427Z,973.7
2018-11-07T06:16:23.037Z,973.7
2018-11-07T06:17:24.118Z,973.7
2018-11-07T06:18:25.358Z,973.7
2018-11-07T06:19:26.721Z,973.7
2018-11-07T06:20:27.918Z,973.6
2018-11-07T06:21:34.853Z,973.8
2018-11-07T06:22:38.426Z,973.8
2018-11-07T06:23:39.716Z,973.8
2018-11-07T06:24:41.987Z,973.8
2018-11-07T06:25:43.235Z,973.9
2018-11-07T06:26:44.442Z,973.8
2018-11-07T06:27:45.714Z,973.8
2018-11-07T06:28:46.917Z,973.8
2018-11-07T06:29:50.973Z,973.9
2018-11-07T06:30:52.189Z,973.7
2018-11-07T06:31:53.762Z,974
2018-11-07T06:32:55.009Z,973.9
2018-11-07T06:34:00.593Z,973.9
2018-11-07T06:35:03.217Z,973.9
2018-11-07T06:36:07.290Z,974
2018-11-07T06:37:08.557Z,974.1
2018-11-07T06:38:09.777Z,974.1
2018-11-07T06:39:11.004Z,973.9
2018-11-07T06:40:12.316Z,974.1
2018-11-07T06:41:13.585Z,974.1
2018-11-07T06:42:14.800Z,974.1
2018-11-07T06:43:17.256Z,974
2018-11-07T06:44:21.772Z,974.1
2018-11-07T06:45:23.000Z,974.1
2018-11-07T06:46:24.254Z,974
2018-11-07T06:47:26.691Z,974
2018-11-07T06:48:35.305Z,974
2018-11-07T06:49:36.537Z,974.1
2018-11-07T06:50:37.747Z,974.1
2018-11-07T06:51:38.963Z,974.1
2018-11-07T06:52:45.581Z,974.1
2018-11-07T06:53:51.967Z,974.1
2018-11-07T06:54:53.230Z,974
2018-11-07T06:55:54.709Z,974
2018-11-07T06:56:55.911Z,974
2018-11-07T06:57:57.222Z,974
2018-11-07T06:59:01.078Z,974
2018-11-07T07:00:02.668Z,974
2018-11-07T07:01:03.878Z,974
2018-11-07T07:02:06.659Z,974.1
2018-11-07T07:03:07.852Z,974.1
2018-11-07T07:04:11.768Z,974.2
2018-11-07T07:05:12.946Z,974
2018-11-07T07:06:14.352Z,974.2
2018-11-07T07:07:15.581Z,974.2
2018-11-07T07:08:16.865Z,974.1
2018-11-07T07:09:18.063Z,974.3
2018-11-07T07:10:19.919Z,974.3
2018-11-07T07:11:31.101Z,974.4
2018-11-07T07:12:34.783Z,974.3
2018-11-07T07:13:38.421Z,974.2
2018-11-07T07:14:44.468Z,974.3
2018-11-07T07:15:45.725Z,974.4
2018-11-07T07:16:50.288Z,974.3
2018-11-07T07:17:57.707Z,974.3
2018-11-07T07:18:59.189Z,974.3
2018-11-07T07:20:00.410Z,974.3
2018-11-07T07:21:01.781Z,974.3
2018-11-07T07:22:03.292Z,974.3
2018-11-07T07:23:14.504Z,974.3
2018-11-07T07:24:15.770Z,974.3
2018-11-07T07:25:17.042Z,974.3
2018-11-07T07:26:20.645Z,974.4
2018-11-07T07:27:22.295Z,974.4
2018-11-07T07:28:23.724Z,974.3
2018-11-07T07:29:25.192Z,974.4
2018-11-07T07:30:26.497Z,974.3
2018-11-07T07:31:30.091Z,974.4
2018-11-07T07:32:36.085Z,974.3
2018-11-07T07:33:37.570Z,974.4
2018-11-07T07:34:41.822Z,974.4
2018-11-07T07:35:43.035Z,974.5
2018-11-07T07:36:46.374Z,974.4
2018-11-07T07:37:50.390Z,974.5
2018-11-07T07:38:51.630Z,974.5
2018-11-07T07:39:52.870Z,974.4
2018-11-07T07:40:59.040Z,974.5
2018-11-07T07:42:00.389Z,974.5
2018-11-07T07:43:01.668Z,974.6
2018-11-07T07:44:05.906Z,974.6
2018-11-07T07:45:11.363Z,974.6
2018-11-07T07:46:12.624Z,974.7
2018-11-07T07:47:18.567Z,974.7
2018-11-07T07:48:19.981Z,974.7
2018-11-07T07:49:23.896Z,974.6
2018-11-07T07:50:26.341Z,974.5
2018-11-07T07:51:28.690Z,974.6
2018-11-07T07:52:35.074Z,974.6
2018-11-07T07:53:36.443Z,974.7
2018-11-07T07:54:42.815Z,974.6
2018-11-07T07:55:44.088Z,974.7
2018-11-07T07:56:49.927Z,974.7
2018-11-07T07:57:54.659Z,974.6
2018-11-07T07:58:57.228Z,974.6
2018-11-07T07:59:58.554Z,974.7
2018-11-07T08:01:05.933Z,974.7
2018-11-07T08:02:10.245Z,974.7
2018-11-07T08:03:11.635Z,974.7
2018-11-07T08:04:19.631Z,974.5
2018-11-07T08:05:21.275Z,974.7
2018-11-07T08:06:22.672Z,974.7
2018-11-07T08:07:31.301Z,974.7
2018-11-07T08:08:33.694Z,974.8
2018-11-07T08:09:37.805Z,974.6
2018-11-07T08:10:49.397Z,974.8
2018-11-07T08:11:59.647Z,974.8
2018-11-07T08:13:02.147Z,974.7
2018-11-07T08:14:03.396Z,974.8
2018-11-07T08:15:08.318Z,974.8
2018-11-07T08:16:10.799Z,974.8
2018-11-07T08:17:12.250Z,974.8
2018-11-07T08:18:13.447Z,974.8
2018-11-07T08:19:17.623Z,974.8
2018-11-07T08:20:19.093Z,974.7
2018-11-07T08:22:43.414Z,974.7
2018-11-07T08:23:50.162Z,974.7
2018-11-07T08:24:51.640Z,974.8
2018-11-07T08:25:55.104Z,974.8
2018-11-07T08:26:56.373Z,974.8
2018-11-07T08:28:08.067Z,974.8
2018-11-07T08:29:09.332Z,974.8
2018-11-07T08:31:28.664Z,974.9
2018-11-07T08:32:35.285Z,974.9
2018-11-07T08:33:37.074Z,974.9
2018-11-07T08:34:47.241Z,974.9
2018-11-07T08:35:50.257Z,974.8
2018-11-07T08:36:54.107Z,974.9
2018-11-07T08:37:57.736Z,974.7
2018-11-07T08:39:07.597Z,974.8
2018-11-07T08:40:08.888Z,974.7
2018-11-07T08:41:11.919Z,974.6
2018-11-07T08:42:16.944Z,974.6
2018-11-07T08:43:18.295Z,974.9
2018-11-07T08:44:21.401Z,974.8
2018-11-07T08:45:34.373Z,974.8
2018-11-07T08:46:40.364Z,974.8
2018-11-07T08:47:45.635Z,974.8
2018-11-07T08:48:47.157Z,974.6
2018-11-07T08:49:48.380Z,974.7
2018-11-07T08:50:49.858Z,974.7
2018-11-07T08:51:51.646Z,974.8
2018-11-07T08:52:53.162Z,974.8
2018-11-07T08:53:56.499Z,974.8
2018-11-07T08:55:00.305Z,974.8
2018-11-07T08:56:01.506Z,974.9
2018-11-07T08:57:17.199Z,974.8
2018-11-07T08:58:18.669Z,974.7
2018-11-07T08:59:26.105Z,974.8
2018-11-07T09:00:33.736Z,974.8
2018-11-07T09:02:38.810Z,974.6
2018-11-07T09:03:44.875Z,974.7
2018-11-07T09:04:46.163Z,974.8
2018-11-07T09:05:48.075Z,974.9
2018-11-07T09:06:52.272Z,974.9
2018-11-07T09:07:54.904Z,974.9
2018-11-07T09:08:59.724Z,974.9
2018-11-07T09:10:01.041Z,974.9
2018-11-07T09:11:05.551Z,974.9
2018-11-07T09:12:09.065Z,975
2018-11-07T09:13:10.436Z,975
2018-11-07T09:14:17.077Z,975
2018-11-07T09:15:18.396Z,974.9
2018-11-07T09:16:30.494Z,974.9
2018-11-07T09:17:31.765Z,975.1
2018-11-07T09:18:40.091Z,975.1
2018-11-07T09:19:41.669Z,975
2018-11-07T09:20:50.103Z,975.1
2018-11-07T09:21:56.240Z,975.1
2018-11-07T09:22:57.777Z,975.1
2018-11-07T09:23:59.050Z,975
2018-11-07T09:25:00.750Z,975.1
2018-11-07T09:26:04.359Z,975.1
2018-11-07T09:27:07.810Z,975.1
2018-11-07T09:28:12.232Z,975
2018-11-07T09:29:13.434Z,975
2018-11-07T09:30:18.380Z,975.1
2018-11-07T09:31:24.375Z,974.9
2018-11-07T09:32:25.624Z,975.1
2018-11-07T09:33:26.861Z,975
2018-11-07T09:34:30.852Z,975.1
2018-11-07T09:35:32.534Z,975.1
2018-11-07T09:36:33.768Z,975.1
2018-11-07T09:37:37.220Z,975.1
2018-11-07T09:38:39.849Z,975.1
2018-11-07T09:39:43.911Z,975
2018-11-07T09:40:45.299Z,974.9
2018-11-07T09:41:47.773Z,975.1
2018-11-07T09:42:51.490Z,975.2
2018-11-07T09:43:53.841Z,975
2018-11-07T09:46:13.503Z,975.1
2018-11-07T09:47:14.831Z,974.9
2018-11-07T09:48:17.668Z,975.2
2018-11-07T09:49:21.581Z,975.1
2018-11-07T09:50:22.895Z,975.2
2018-11-07T09:51:27.174Z,975.2
2018-11-07T09:52:32.648Z,975.2
2018-11-07T09:53:36.092Z,975.1
2018-11-07T09:54:41.925Z,975.1
2018-11-07T09:55:43.330Z,975.1
2018-11-07T09:56:44.609Z,975.1
2018-11-07T09:57:46.102Z,975.1
2018-11-07T09:58:47.583Z,975
2018-11-07T09:59:51.243Z,975
2018-11-07T10:00:52.457Z,975.1
2018-11-07T10:01:56.016Z,975.1
2018-11-07T10:02:57.413Z,975
2018-11-07T10:03:59.091Z,975.2
2018-11-07T10:05:03.073Z,975.2
2018-11-07T10:06:04.347Z,975.2
2018-11-07T10:07:09.621Z,975.1
2018-11-07T10:08:11.078Z,975.2
2018-11-07T10:09:12.290Z,975
2018-11-07T10:10:13.870Z,975.2
2018-11-07T10:12:35.026Z,975.3
2018-11-07T10:13:36.306Z,975.3
2018-11-07T10:14:40.634Z,975.3
2018-11-07T10:15:44.749Z,975.2
2018-11-07T10:16:52.382Z,975.3
2018-11-07T10:17:57.837Z,975.3
2018-11-07T10:18:59.505Z,975.2
2018-11-07T10:20:03.791Z,975.2
2018-11-07T10:21:18.607Z,975.2
2018-11-07T10:22:29.634Z,975.1
2018-11-07T10:23:47.967Z,975.3
2018-11-07T10:24:51.310Z,975.3
2018-11-07T10:25:57.706Z,975.1
2018-11-07T10:27:03.422Z,975.2
2018-11-07T10:28:09.621Z,975.2
2018-11-07T10:29:11.579Z,975.1
2018-11-07T10:30:18.992Z,975.1
2018-11-07T10:31:23.074Z,975.1
2018-11-07T10:32:24.322Z,975.2
2018-11-07T10:33:25.636Z,975.2
2018-11-07T10:34:27.109Z,975.2
2018-11-07T10:35:32.600Z,975.2
2018-11-07T10:36:39.319Z,975.2
2018-11-07T10:37:45.859Z,975.2
2018-11-07T10:38:50.141Z,975.1
2018-11-07T10:39:51.729Z,975.2
2018-11-07T10:40:53.210Z,975.2
2018-11-07T10:41:54.636Z,975.2
2018-11-07T10:43:03.090Z,975.2
2018-11-07T10:44:10.107Z,975.1
2018-11-07T10:45:11.347Z,975.3
2018-11-07T10:46:14.616Z,975.1
2018-11-07T10:47:19.620Z,975.1
2018-11-07T10:48:24.285Z,975.2
2018-11-07T10:49:25.537Z,975
2018-11-07T10:50:26.839Z,975
2018-11-07T10:51:29.396Z,974.9
2018-11-07T10:52:30.725Z,974.9
2018-11-07T10:53:34.976Z,974.8
2018-11-07T10:54:42.392Z,974.9
2018-11-07T10:55:48.581Z,974.7
2018-11-07T10:56:51.925Z,974.9
2018-11-07T10:58:02.643Z,974.9
2018-11-07T10:59:22.760Z,974.7
2018-11-07T11:00:26.381Z,974.9
2018-11-07T11:01:31.794Z,974.8
2018-11-07T11:02:41.979Z,974.9
2018-11-07T11:03:44.502Z,974.8
2018-11-07T11:04:49.247Z,974.8
2018-11-07T11:05:50.553Z,974.8
2018-11-07T11:06:56.780Z,974.8
2018-11-07T11:07:59.859Z,974.8
2018-11-07T11:09:03.078Z,974.8
2018-11-07T11:10:16.618Z,974.8
2018-11-07T11:11:19.364Z,974.6
2018-11-07T11:12:23.030Z,974.7
2018-11-07T11:13:24.251Z,974.7
2018-11-07T11:14:25.524Z,974.8
2018-11-07T11:15:26.819Z,974.8
2018-11-07T11:16:30.280Z,974.8
2018-11-07T11:17:35.438Z,974.8
2018-11-07T11:18:38.624Z,974.7
2018-11-07T11:19:53.892Z,974.7
2018-11-07T11:20:55.670Z,974.8
2018-11-07T11:22:05.510Z,974.8
2018-11-07T11:23:06.848Z,974.7
2018-11-07T11:24:13.456Z,974.8
2018-11-07T11:25:15.215Z,974.8
2018-11-07T11:26:19.314Z,974.9
2018-11-07T11:27:20.726Z,974.8
2018-11-07T11:28:27.092Z,974.8
2018-11-07T11:29:29.616Z,974.8
2018-11-07T11:30:35.265Z,974.6
2018-11-07T11:31:36.814Z,974.8
2018-11-07T11:32:40.898Z,974.8
2018-11-07T11:33:44.866Z,974.8
2018-11-07T11:34:51.242Z,974.8
2018-11-07T11:35:52.450Z,974.7
2018-11-07T11:37:06.531Z,974.7
2018-11-07T11:38:14.395Z,974.6
2018-11-07T11:39:25.501Z,974.7
2018-11-07T11:40:29.402Z,974.7
2018-11-07T11:41:30.863Z,974.7
2018-11-07T11:42:36.401Z,974.7
2018-11-07T11:43:38.837Z,974.8
2018-11-07T11:44:49.403Z,974.7
2018-11-07T11:45:52.954Z,974.7
2018-11-07T11:46:59.568Z,974.6
2018-11-07T11:48:01.247Z,974.7
2018-11-07T11:49:02.534Z,974.7
2018-11-07T11:50:03.764Z,974.6
2018-11-07T11:51:20.601Z,974.7
2018-11-07T11:52:21.850Z,974.7
2018-11-07T11:53:24.213Z,974.7
2018-11-07T11:54:27.001Z,974.7
2018-11-07T11:55:29.513Z,974.8
2018-11-07T11:56:30.943Z,974.7
2018-11-07T11:57:32.172Z,974.7
2018-11-07T11:58:33.465Z,974.7
2018-11-07T11:59:39.128Z,974.7
2018-11-07T12:00:41.336Z,974.6
2018-11-07T12:01:42.792Z,974.5
2018-11-07T12:02:44.322Z,974.7
2018-11-07T12:03:45.619Z,974.7
2018-11-07T12:04:51.041Z,974.7
2018-11-07T12:05:58.639Z,974.6
2018-11-07T12:07:10.283Z,974.6
2018-11-07T12:08:11.715Z,974.6
2018-11-07T12:09:14.019Z,974.7
2018-11-07T12:10:17.279Z,974.6
2018-11-07T12:11:35.698Z,974.7
2018-11-07T12:12:45.363Z,974.5
2018-11-07T12:13:58.779Z,974.7
2018-11-07T12:15:03.627Z,974.7
2018-11-07T12:16:04.991Z,974.7
2018-11-07T12:17:13.672Z,974.7
2018-11-07T12:18:18.229Z,974.8
2018-11-07T12:19:21.783Z,974.7
2018-11-07T12:20:23.317Z,974.7
2018-11-07T12:21:26.835Z,974.5
2018-11-07T12:22:36.303Z,974.7
2018-11-07T12:23:40.519Z,974.6
2018-11-07T12:24:54.831Z,974
2018-11-07T12:25:56.074Z,974.6
2018-11-07T12:26:57.401Z,974.6
2018-11-07T12:28:06.735Z,974.5
2018-11-07T12:29:11.160Z,974.5
2018-11-07T12:30:20.063Z,974.5
2018-11-07T12:33:06.203Z,974.6
2018-11-07T12:34:07.499Z,974.5
2018-11-07T12:35:09.161Z,974.4
2018-11-07T12:36:16.804Z,974.6
2018-11-07T12:37:18.163Z,974.6
2018-11-07T12:38:21.700Z,974.6
2018-11-07T12:39:23.118Z,974.5
2018-11-07T12:40:24.728Z,974.6
2018-11-07T12:41:29.317Z,974.5
2018-11-07T12:42:35.405Z,974.5
2018-11-07T12:43:36.751Z,974.5
2018-11-07T12:44:40.619Z,974.4
2018-11-07T12:45:47.002Z,974.6
2018-11-07T12:46:50.827Z,974.7
2018-11-07T12:47:52.262Z,974.5
2018-11-07T12:48:53.739Z,974.5
2018-11-07T12:51:04.800Z,974.5
2018-11-07T12:52:06.319Z,974.5
2018-11-07T12:53:07.559Z,974.5
2018-11-07T12:54:12.905Z,974.5
2018-11-07T12:55:17.154Z,974.6
2018-11-07T12:56:22.607Z,974.5
2018-11-07T12:57:24.109Z,974.5
2018-11-07T12:58:25.400Z,974.5
2018-11-07T12:59:36.205Z,974.6
2018-11-07T13:00:38.522Z,974.5
2018-11-07T13:01:54.240Z,974.5
2018-11-07T13:03:06.506Z,974.5
2018-11-07T13:04:13.079Z,974.5
2018-11-07T13:05:14.461Z,974.5
2018-11-07T13:06:20.555Z,974.3
2018-11-07T13:07:21.815Z,974.5
2018-11-07T13:08:25.529Z,974.5
2018-11-07T13:09:28.364Z,974.5
2018-11-07T13:10:34.251Z,974.5
2018-11-07T13:11:35.890Z,974.4
2018-11-07T13:12:48.090Z,974.5
2018-11-07T13:13:49.322Z,974.5
2018-11-07T13:15:08.297Z,974.5
2018-11-07T13:16:14.471Z,974.5
2018-11-07T13:17:23.234Z,974.5
2018-11-07T13:18:27.822Z,974.5
2018-11-07T13:19:35.375Z,974.5
2018-11-07T13:20:43.476Z,974.3
2018-11-07T13:21:46.187Z,974.5
2018-11-07T13:22:47.677Z,974.5
2018-11-07T13:23:48.881Z,974.5
2018-11-07T13:24:54.625Z,974.4
2018-11-07T13:27:18.615Z,974.5
2018-11-07T13:28:20.040Z,974.5
2018-11-07T13:29:23.772Z,974.3
2018-11-07T13:30:30.226Z,974.4
2018-11-07T13:32:49.961Z,974.4
2018-11-07T13:33:51.295Z,974.3
2018-11-07T13:34:59.027Z,974.4
2018-11-07T13:36:06.395Z,974.4
2018-11-07T13:37:07.953Z,974.3
2018-11-07T13:38:11.635Z,974.4
2018-11-07T13:39:16.046Z,974.4
2018-11-07T13:40:25.513Z,974.2
2018-11-07T13:41:26.825Z,974.4
2018-11-07T13:42:30.193Z,974.5
2018-11-07T13:43:36.873Z,974.4
2018-11-07T13:44:39.647Z,974.4
2018-11-07T13:45:50.710Z,974.4
2018-11-07T13:46:53.549Z,974.4
2018-11-07T13:47:57.742Z,974.4
2018-11-07T13:49:01.779Z,974.4
2018-11-07T13:50:17.730Z,974.5